Time;durP1;ratioP1;P1;durP2;ratioP2;P2;SDS_P1;SDS_P2;PMS_P1;PMS_P2;Temp;Humidity;BMP_temperature;BMP_pressure;BME280_temperature;BME280_humidity;BME280_pressure;Samples;Min_cycle;Max_cycle;Signal;HPM_P1;HPM_P2
2024/01/08 00:01:47;;;;;;;8.43;6.22;;;1.00;53.30;;;;;;5114023;28;20073;-71
2024/01/08 00:04:13;;;;;;;11.70;7.70;;;1.00;53.30;;;;;;5117208;27;20097;-71
2024/01/08 00:06:39;;;;;;;12.18;6.95;;;1.00;53.30;;;;;;5132823;27;20512;-71
2024/01/08 00:09:05;;;;;;;11.35;7.65;;;0.90;53.30;;;;;;5115161;28;20055;-71
2024/01/08 00:11:30;;;;;;;10.35;7.05;;;0.90;53.30;;;;;;5124866;27;20039;-71
2024/01/08 00:13:56;;;;;;;10.65;6.80;;;0.90;53.20;;;;;;5116226;27;20076;-72
2024/01/08 00:16:22;;;;;;;10.95;6.93;;;0.90;53.20;;;;;;5117232;27;20023;-71
2024/01/08 00:18:47;;;;;;;10.05;7.45;;;0.90;53.20;;;;;;5117033;27;20032;-71
2024/01/08 00:21:13;;;;;;;9.77;7.13;;;0.90;53.30;;;;;;5128611;27;20055;-72
2024/01/08 00:23:39;;;;;;;10.45;6.35;;;0.90;53.30;;;;;;5113559;28;20031;-70
2024/01/08 00:26:05;;;;;;;8.52;6.20;;;0.90;53.20;;;;;;5116363;27;20027;-71
2024/01/08 00:28:31;;;;;;;11.02;8.02;;;0.90;53.20;;;;;;5135234;27;20035;-71
2024/01/08 00:30:56;;;;;;;9.90;7.00;;;0.80;53.20;;;;;;5113437;28;20115;-70
2024/01/08 00:33:22;;;;;;;10.35;6.88;;;0.80;53.20;;;;;;5116894;27;20031;-71
2024/01/08 00:35:48;;;;;;;9.23;6.45;;;0.80;53.20;;;;;;5131733;27;20032;-70
2024/01/08 00:38:14;;;;;;;9.30;7.00;;;0.80;53.20;;;;;;5113618;28;20028;-70
2024/01/08 00:40:39;;;;;;;9.30;6.85;;;0.80;53.10;;;;;;5115376;28;20374;-71
2024/01/08 00:43:05;;;;;;;10.82;7.60;;;0.80;53.20;;;;;;5097022;28;20030;-72
2024/01/08 00:45:32;;;;;;;9.20;6.60;;;0.80;53.20;;;;;;5114654;28;20027;-72
2024/01/08 00:47:58;;;;;;;9.75;7.35;;;0.80;53.20;;;;;;5099898;27;20461;-72
2024/01/08 00:50:23;;;;;;;9.52;6.90;;;0.80;53.10;;;;;;5135293;27;20034;-71
2024/01/08 00:52:49;;;;;;;9.13;6.07;;;0.80;53.20;;;;;;5134988;27;20023;-72
2024/01/08 00:55:15;;;;;;;11.38;7.43;;;0.70;53.10;;;;;;5116078;27;20035;-72
2024/01/08 00:57:41;;;;;;;9.95;6.63;;;0.70;53.10;;;;;;5133294;27;20031;-73
2024/01/08 01:00:08;;;;;;;9.48;7.00;;;0.70;53.10;;;;;;5135284;27;20027;-70
2024/01/08 01:02:35;;;;;;;10.75;6.82;;;0.70;53.10;;;;;;5116832;27;20102;-72
2024/01/08 01:05:01;;;;;;;11.50;7.47;;;0.60;53.20;;;;;;5114916;27;20062;-72
2024/01/08 01:07:27;;;;;;;9.82;6.70;;;0.60;53.10;;;;;;5114499;28;20505;-71
2024/01/08 01:09:54;;;;;;;10.48;6.65;;;0.60;53.10;;;;;;5112904;28;20031;-71
2024/01/08 01:12:20;;;;;;;9.27;6.63;;;0.60;53.20;;;;;;5116236;27;20027;-71
2024/01/08 01:14:45;;;;;;;11.18;7.50;;;0.60;53.20;;;;;;5117044;28;20088;-72
2024/01/08 01:17:11;;;;;;;10.23;7.18;;;0.60;53.10;;;;;;5114388;28;20055;-71
2024/01/08 01:19:37;;;;;;;12.52;8.57;;;0.60;53.20;;;;;;5122622;27;20453;-72
2024/01/08 01:22:03;;;;;;;11.68;7.43;;;0.60;53.10;;;;;;5134582;27;20023;-72
2024/01/08 01:24:29;;;;;;;11.35;7.70;;;0.60;53.20;;;;;;5119001;27;20032;-71
2024/01/08 01:26:54;;;;;;;11.05;7.40;;;0.60;53.00;;;;;;5112690;28;20039;-72
2024/01/08 01:29:20;;;;;;;10.55;7.70;;;0.50;52.90;;;;;;5114270;28;20031;-73
2024/01/08 01:31:46;;;;;;;11.55;7.47;;;0.50;52.90;;;;;;5112413;28;20548;-72
2024/01/08 01:34:12;;;;;;;10.60;8.05;;;0.50;52.90;;;;;;5098458;28;20055;-71
2024/01/08 01:36:38;;;;;;;10.10;6.97;;;0.50;52.90;;;;;;5133249;28;20119;-71
2024/01/08 01:39:05;;;;;;;12.05;7.50;;;0.50;53.00;;;;;;5123434;28;20059;-71
2024/01/08 01:41:32;;;;;;;12.70;7.95;;;0.50;53.00;;;;;;5113981;28;20028;-71
2024/01/08 01:43:58;;;;;;;10.52;7.20;;;0.50;53.00;;;;;;5118704;28;20034;-72
2024/01/08 01:46:46;;;;;;;11.45;8.20;;;0.50;52.90;;;;;;5134089;27;20076;-71
2024/01/08 01:49:14;;;;;;;11.05;7.90;;;0.50;52.80;;;;;;5112164;28;20039;-71
2024/01/08 01:51:42;;;;;;;12.10;8.10;;;0.40;52.80;;;;;;5113869;28;20484;-72
2024/01/08 01:54:10;;;;;;;11.80;7.65;;;0.40;52.80;;;;;;5112527;28;20038;-72
2024/01/08 01:56:37;;;;;;;10.60;7.82;;;0.40;52.90;;;;;;5112581;28;20036;-72
2024/01/08 01:59:04;;;;;;;12.48;8.55;;;0.40;52.80;;;;;;5127106;27;20054;-72
2024/01/08 02:01:31;;;;;;;9.65;6.97;;;0.40;52.90;;;;;;5124284;27;20036;-72
2024/01/08 02:03:57;;;;;;;12.38;8.52;;;0.40;52.90;;;;;;5118411;27;20128;-71
2024/01/08 02:06:27;;;;;;;10.55;7.20;;;0.40;52.90;;;;;;5103220;28;20426;-70
2024/01/08 02:08:53;;;;;;;10.98;7.43;;;0.40;52.90;;;;;;5125177;27;20079;-71
2024/01/08 02:11:20;;;;;;;12.70;8.23;;;0.40;52.80;;;;;;5120032;27;20120;-71
2024/01/08 02:13:46;;;;;;;13.60;8.52;;;0.40;52.80;;;;;;5119529;27;20073;-74
2024/01/08 02:16:12;;;;;;;11.30;7.78;;;0.40;52.70;;;;;;5119885;27;20035;-71
2024/01/08 02:18:38;;;;;;;10.98;7.57;;;0.40;52.70;;;;;;5137773;27;20024;-71
2024/01/08 02:21:04;;;;;;;12.55;8.32;;;0.40;52.70;;;;;;5137421;27;20510;-71
2024/01/08 02:23:30;;;;;;;11.27;7.60;;;0.30;52.60;;;;;;5115652;28;20542;-70
2024/01/08 02:25:56;;;;;;;11.00;7.95;;;0.30;52.60;;;;;;5125414;27;20054;-71
2024/01/08 02:28:21;;;;;;;12.77;8.23;;;0.30;52.60;;;;;;5137592;27;20035;-72
2024/01/08 02:30:47;;;;;;;10.55;7.53;;;0.30;52.60;;;;;;5137207;27;20034;-71
2024/01/08 02:33:13;;;;;;;11.85;7.85;;;0.30;52.60;;;;;;5115932;28;20084;-71
2024/01/08 02:35:39;;;;;;;10.68;7.25;;;0.30;52.60;;;;;;5117514;28;20027;-71
2024/01/08 02:38:05;;;;;;;13.48;8.18;;;0.30;52.60;;;;;;5126309;27;20076;-71
2024/01/08 02:40:31;;;;;;;12.50;8.13;;;0.30;52.50;;;;;;5137617;27;20457;-72
2024/01/08 02:42:57;;;;;;;12.05;8.02;;;0.20;52.40;;;;;;5137708;27;20027;-72
2024/01/08 02:45:23;;;;;;;13.00;8.13;;;0.20;52.50;;;;;;5136836;27;20035;-70
2024/01/08 02:47:48;;;;;;;11.45;8.10;;;0.20;52.60;;;;;;5138105;27;20015;-71
2024/01/08 02:50:14;;;;;;;9.07;6.80;;;0.20;52.60;;;;;;5137711;27;20064;-72
2024/01/08 02:52:40;;;;;;;13.30;8.10;;;0.20;52.70;;;;;;5102448;27;20401;-72
2024/01/08 02:55:06;;;;;;;12.45;7.80;;;0.20;52.60;;;;;;5119142;27;20569;-72
2024/01/08 02:57:33;;;;;;;9.73;6.57;;;0.20;52.70;;;;;;5137889;27;20030;-71
2024/01/08 02:59:59;;;;;;;10.25;7.30;;;0.20;52.60;;;;;;5136514;27;20042;-72
2024/01/08 03:02:25;;;;;;;9.32;6.80;;;0.20;52.60;;;;;;5119111;27;20027;-71
2024/01/08 03:04:52;;;;;;;13.73;8.13;;;0.20;52.60;;;;;;5118263;27;20054;-71
2024/01/08 03:07:20;;;;;;;11.40;8.43;;;0.20;52.60;;;;;;5136780;27;20027;-71
2024/01/08 03:09:47;;;;;;;11.15;6.95;;;0.20;52.50;;;;;;5117284;27;20023;-71
2024/01/08 03:12:13;;;;;;;10.63;7.88;;;0.20;52.60;;;;;;5111990;27;20020;-71
2024/01/08 03:14:39;;;;;;;9.80;6.82;;;0.10;52.40;;;;;;5124137;27;20068;-72
2024/01/08 03:17:05;;;;;;;11.70;7.43;;;0.10;52.30;;;;;;5115326;28;20035;-72
2024/01/08 03:19:31;;;;;;;12.98;8.30;;;0.10;52.40;;;;;;5118448;27;20023;-72
2024/01/08 03:21:59;;;;;;;11.32;7.35;;;0.10;52.50;;;;;;5117164;27;20027;-72
2024/01/08 03:24:25;;;;;;;11.70;7.28;;;0.10;52.50;;;;;;5114829;28;20130;-72
2024/01/08 03:26:50;;;;;;;11.60;7.88;;;0.10;52.40;;;;;;5123945;27;20441;-71
2024/01/08 03:29:16;;;;;;;10.75;7.35;;;0.10;52.30;;;;;;5134860;27;20461;-71
2024/01/08 03:31:43;;;;;;;13.80;7.80;;;0.00;52.30;;;;;;5137531;27;20066;-72
2024/01/08 03:34:08;;;;;;;11.80;7.25;;;0.00;52.40;;;;;;5132346;27;20039;-71
2024/01/08 03:36:34;;;;;;;10.38;7.22;;;0.00;52.40;;;;;;5114436;27;20040;-72
2024/01/08 03:39:00;;;;;;;10.20;7.60;;;0.00;52.40;;;;;;5130029;27;20115;-71
2024/01/08 03:41:26;;;;;;;12.10;8.13;;;0.00;52.40;;;;;;5079511;28;20023;-72
2024/01/08 03:43:52;;;;;;;9.32;6.53;;;0.00;52.40;;;;;;5121421;27;20426;-71
2024/01/08 03:46:18;;;;;;;11.60;7.22;;;0.00;52.30;;;;;;5136528;27;20071;-71
2024/01/08 03:48:43;;;;;;;11.43;7.97;;;0.00;52.20;;;;;;5136206;27;20104;-71
2024/01/08 03:51:09;;;;;;;10.82;6.85;;;0.00;52.20;;;;;;5129598;27;20373;-71
2024/01/08 03:53:35;;;;;;;10.82;7.43;;;-0.10;52.20;;;;;;5127313;27;20580;-72
2024/01/08 03:56:01;;;;;;;13.82;7.60;;;-0.10;52.20;;;;;;5115539;27;20118;-71
2024/01/08 03:58:27;;;;;;;10.55;6.93;;;-0.10;52.20;;;;;;5128897;27;20031;-70
2024/01/08 04:00:53;;;;;;;12.93;8.05;;;-0.20;52.20;;;;;;5136128;27;20054;-72
2024/01/08 04:03:20;;;;;;;11.15;7.25;;;-0.10;52.30;;;;;;5135396;27;20150;-72
2024/01/08 04:05:46;;;;;;;12.65;7.57;;;-0.20;52.10;;;;;;5077034;28;20028;-72
2024/01/08 04:08:12;;;;;;;13.00;8.75;;;-0.20;52.20;;;;;;5109925;28;20027;-71
2024/01/08 04:10:38;;;;;;;11.73;7.68;;;-0.20;52.30;;;;;;5118282;27;20023;-72
2024/01/08 04:13:04;;;;;;;11.07;7.30;;;-0.20;52.30;;;;;;5135481;27;20350;-71
2024/01/08 04:15:30;;;;;;;11.68;7.55;;;-0.20;52.30;;;;;;5134538;27;20031;-72
2024/01/08 04:17:56;;;;;;;11.20;8.32;;;-0.20;52.20;;;;;;5118177;27;20042;-72
2024/01/08 04:20:21;;;;;;;11.10;7.00;;;-0.30;52.30;;;;;;5116037;27;20019;-73
2024/01/08 04:22:48;;;;;;;11.00;7.80;;;-0.20;52.20;;;;;;5135594;27;20047;-73
2024/01/08 04:25:14;;;;;;;13.02;7.35;;;-0.20;52.20;;;;;;5116855;27;20042;-72
2024/01/08 04:27:40;;;;;;;11.70;7.53;;;-0.20;52.20;;;;;;5129717;27;20102;-72
2024/01/08 04:30:06;;;;;;;11.27;6.88;;;-0.20;52.10;;;;;;5105024;27;20026;-72
2024/01/08 04:32:32;;;;;;;10.35;6.28;;;-0.20;52.20;;;;;;5114806;27;20027;-71
2024/01/08 04:34:58;;;;;;;12.93;7.88;;;-0.20;52.20;;;;;;5129514;27;20054;-71
2024/01/08 04:37:23;;;;;;;10.80;6.93;;;-0.30;52.20;;;;;;5106874;28;20107;-71
2024/01/08 04:39:49;;;;;;;11.65;7.78;;;-0.30;52.20;;;;;;5097680;27;20138;-72
2024/01/08 04:42:15;;;;;;;12.35;8.02;;;-0.30;52.10;;;;;;5116649;27;20039;-73
2024/01/08 04:44:40;;;;;;;10.95;7.40;;;-0.30;52.10;;;;;;5115061;28;20024;-72
2024/01/08 04:47:07;;;;;;;10.90;7.45;;;-0.30;52.00;;;;;;5115962;27;20393;-70
2024/01/08 04:49:33;;;;;;;9.70;7.30;;;-0.30;52.00;;;;;;5113594;27;20492;-71
2024/01/08 04:51:58;;;;;;;12.10;7.30;;;-0.30;52.00;;;;;;5101478;28;20032;-72
2024/01/08 04:54:24;;;;;;;11.07;7.57;;;-0.40;52.00;;;;;;5097465;28;20044;-72
2024/01/08 04:56:50;;;;;;;10.73;7.03;;;-0.40;51.90;;;;;;5116063;27;20039;-71
2024/01/08 04:59:16;;;;;;;11.57;7.50;;;-0.40;52.00;;;;;;5114980;28;20032;-72
2024/01/08 05:01:41;;;;;;;9.75;6.80;;;-0.40;52.00;;;;;;5116300;27;20027;-72
2024/01/08 05:04:07;;;;;;;11.07;7.20;;;-0.40;52.00;;;;;;5120249;27;20123;-71
2024/01/08 05:06:33;;;;;;;11.90;7.78;;;-0.50;52.00;;;;;;5116012;27;20422;-72
2024/01/08 05:09:00;;;;;;;12.80;7.88;;;-0.40;52.10;;;;;;5115122;27;20466;-73
2024/01/08 05:11:26;;;;;;;12.05;7.30;;;-0.50;52.10;;;;;;5121645;27;20035;-71
2024/01/08 05:13:52;;;;;;;11.20;7.47;;;-0.50;52.00;;;;;;5108830;28;20031;-72
2024/01/08 05:16:18;;;;;;;12.77;6.47;;;-0.50;51.90;;;;;;5119540;27;20031;-72
2024/01/08 05:18:43;;;;;;;10.55;7.60;;;-0.50;51.90;;;;;;5115249;27;20024;-72
2024/01/08 05:21:13;;;;;;;8.48;6.07;;;-0.50;51.90;;;;;;5120969;27;20023;-72
2024/01/08 05:23:39;;;;;;;13.88;7.93;;;-0.50;51.90;;;;;;5115271;28;20031;-70
2024/01/08 05:26:05;;;;;;;9.82;6.88;;;-0.50;51.80;;;;;;5117631;27;20442;-72
2024/01/08 05:28:31;;;;;;;10.27;6.70;;;-0.50;51.90;;;;;;5116349;27;20031;-72
2024/01/08 05:30:56;;;;;;;11.55;7.32;;;-0.60;51.90;;;;;;5119945;27;20026;-73
2024/01/08 05:33:23;;;;;;;11.70;7.28;;;-0.60;51.90;;;;;;5129463;27;20066;-72
2024/01/08 05:35:48;;;;;;;10.38;6.85;;;-0.60;51.90;;;;;;5104881;28;20039;-72
2024/01/08 05:38:14;;;;;;;10.05;6.72;;;-0.60;51.90;;;;;;5113004;27;20035;-71
2024/01/08 05:40:40;;;;;;;10.07;7.13;;;-0.60;51.90;;;;;;5109226;28;20099;-71
2024/01/08 05:43:06;;;;;;;10.27;7.40;;;-0.60;51.90;;;;;;5119948;28;20023;-70
2024/01/08 05:45:31;;;;;;;11.25;7.65;;;-0.70;51.90;;;;;;5118725;28;20385;-71
2024/01/08 05:47:57;;;;;;;9.65;6.95;;;-0.70;51.90;;;;;;5106454;28;20016;-71
2024/01/08 05:50:27;;;;;;;11.75;7.05;;;-0.70;51.90;;;;;;5114163;28;20564;-70
2024/01/08 05:52:56;;;;;;;9.10;6.07;;;-0.70;51.90;;;;;;5132418;28;20076;-70
2024/01/08 05:55:23;;;;;;;11.35;7.30;;;-0.70;51.80;;;;;;5116673;28;20054;-70
2024/01/08 05:57:49;;;;;;;10.20;6.53;;;-0.70;51.80;;;;;;5129189;27;20118;-68
2024/01/08 06:00:16;;;;;;;9.60;6.40;;;-0.70;51.80;;;;;;5110407;28;20433;-73
2024/01/08 06:02:42;;;;;;;9.32;6.50;;;-0.70;51.70;;;;;;5122819;28;20027;-69
2024/01/08 06:05:09;;;;;;;7.90;5.88;;;-0.70;52.80;;;;;;5117449;27;20049;-70
2024/01/08 06:07:35;;;;;;;6.80;5.50;;;-0.60;54.90;;;;;;5104941;28;20024;-71
2024/01/08 06:10:00;;;;;;;6.57;4.78;;;-0.40;55.70;;;;;;5116283;28;20026;-74
2024/01/08 06:12:26;;;;;;;6.32;4.93;;;-0.30;56.10;;;;;;5115599;28;20028;-72
2024/01/08 06:14:55;;;;;;;6.45;4.70;;;-0.20;56.30;;;;;;5132358;28;20088;-72
2024/01/08 06:17:21;;;;;;;4.93;4.13;;;0.00;56.40;;;;;;5112381;28;20111;-72
2024/01/08 06:19:48;;;;;;;5.13;4.20;;;0.10;56.40;;;;;;5113847;27;20027;-70
2024/01/08 06:22:14;;;;;;;5.28;4.43;;;0.20;56.30;;;;;;5114540;28;20035;-72
2024/01/08 06:24:40;;;;;;;5.28;4.22;;;0.40;56.40;;;;;;5117658;28;20041;-71
2024/01/08 06:27:06;;;;;;;5.93;4.68;;;0.50;56.30;;;;;;5104163;28;20032;-72
2024/01/08 06:29:32;;;;;;;5.70;4.45;;;0.60;56.20;;;;;;5109335;28;20050;-74
2024/01/08 06:31:59;;;;;;;5.15;4.20;;;0.70;56.20;;;;;;5107252;28;20464;-75
2024/01/08 06:34:25;;;;;;;4.97;4.00;;;0.80;56.50;;;;;;5114567;28;20146;-76
2024/01/08 06:36:51;;;;;;;5.38;4.38;;;0.90;56.00;;;;;;5115410;28;20504;-73
2024/01/08 06:39:17;;;;;;;4.97;4.47;;;0.90;55.80;;;;;;5129190;28;20015;-75
2024/01/08 06:41:43;;;;;;;5.20;4.10;;;1.00;55.80;;;;;;5096677;28;20476;-73
2024/01/08 06:44:09;;;;;;;4.43;3.90;;;1.10;55.70;;;;;;5115261;28;20035;-74
2024/01/08 06:46:35;;;;;;;4.25;3.85;;;1.20;55.60;;;;;;5102790;27;20469;-80
2024/01/08 06:49:01;;;;;;;4.25;3.85;;;1.20;55.50;;;;;;5118299;27;20072;-78
2024/01/08 06:51:26;;;;;;;5.82;4.55;;;1.30;55.50;;;;;;5115101;27;20079;-73
2024/01/08 06:53:52;;;;;;;5.13;3.80;;;1.40;55.40;;;;;;5119410;27;20052;-74
2024/01/08 06:56:18;;;;;;;5.78;4.00;;;1.40;55.30;;;;;;5118826;27;20035;-79
2024/01/08 06:58:44;;;;;;;5.40;4.03;;;1.50;55.20;;;;;;5119166;27;20027;-77
2024/01/08 07:01:10;;;;;;;4.80;3.80;;;1.50;55.10;;;;;;5119130;27;20023;-77
2024/01/08 07:03:36;;;;;;;5.63;4.47;;;1.60;55.10;;;;;;5120367;28;20043;-80
2024/01/08 07:06:02;;;;;;;10.45;4.10;;;1.70;55.10;;;;;;5118992;28;20477;-83
2024/01/08 07:08:27;;;;;;;5.35;4.10;;;1.70;55.70;;;;;;5115948;28;20422;-79
2024/01/08 07:10:53;;;;;;;5.55;4.18;;;1.80;56.40;;;;;;5114042;28;20106;-76
2024/01/08 07:13:19;;;;;;;5.88;3.92;;;1.80;56.60;;;;;;5116480;27;20023;-78
2024/01/08 07:15:48;;;;;;;4.43;4.00;;;1.90;56.80;;;;;;5116649;27;20384;-76
2024/01/08 07:18:18;;;;;;;4.82;4.10;;;1.90;56.70;;;;;;5117550;27;20020;-77
2024/01/08 07:20:44;;;;;;;21.98;11.77;;;2.00;56.70;;;;;;5097097;28;20076;-77
2024/01/08 07:23:11;;;;;;;257.48;156.77;;;2.10;61.80;;;;;;5104092;27;20473;-75
2024/01/08 07:25:38;;;;;;;117.20;80.63;;;2.60;67.10;;;;;;5112428;28;20106;-74
2024/01/08 07:28:07;;;;;;;136.95;97.93;;;2.90;64.30;;;;;;5114875;27;20030;-74
2024/01/08 07:30:33;;;;;;;104.03;75.25;;;3.10;63.20;;;;;;5114708;27;20497;-75
2024/01/08 07:32:59;;;;;;;109.03;76.88;;;3.20;63.10;;;;;;5116268;27;20110;-74
2024/01/08 07:35:25;;;;;;;103.97;75.93;;;3.20;63.00;;;;;;5118260;27;20088;-74
2024/01/08 07:37:55;;;;;;;106.13;74.78;;;3.20;62.80;;;;;;5098897;28;20032;-74
2024/01/08 07:40:27;;;;;;;94.28;67.72;;;3.30;62.70;;;;;;5093807;28;20027;-74
2024/01/08 07:42:57;;;;;;;94.65;66.38;;;3.30;62.40;;;;;;5103381;28;20024;-75
2024/01/08 07:45:25;;;;;;;82.32;58.42;;;3.30;62.30;;;;;;5096494;28;20023;-75
2024/01/08 07:47:52;;;;;;;97.47;67.22;;;3.30;62.30;;;;;;5114403;28;20027;-75
2024/01/08 07:50:19;;;;;;;88.22;62.28;;;3.30;62.30;;;;;;5094621;28;20776;-74
2024/01/08 07:52:45;;;;;;;82.53;54.42;;;3.30;62.20;;;;;;5098970;28;20118;-74
2024/01/08 07:55:12;;;;;;;75.88;54.72;;;3.30;62.10;;;;;;5113677;27;20027;-74
2024/01/08 07:57:37;;;;;;;91.78;61.00;;;3.30;62.00;;;;;;5111555;28;20059;-75
2024/01/08 08:00:11;;;;;;;75.70;53.45;;;3.30;62.00;;;;;;5113955;27;20062;-74
2024/01/08 08:02:37;;;;;;;78.82;55.72;;;3.30;62.00;;;;;;5099605;28;20024;-73
2024/01/08 08:05:03;;;;;;;63.33;45.25;;;3.30;61.90;;;;;;5116719;27;20375;-74
2024/01/08 08:07:29;;;;;;;62.42;43.70;;;3.30;61.80;;;;;;5114574;27;20038;-75
2024/01/08 08:09:55;;;;;;;60.38;43.88;;;3.30;61.80;;;;;;5117954;27;20032;-76
2024/01/08 08:12:21;;;;;;;60.35;42.55;;;3.30;61.80;;;;;;5100473;27;20035;-74
2024/01/08 08:14:48;;;;;;;58.28;40.40;;;3.30;61.70;;;;;;5114326;27;20073;-75
2024/01/08 08:17:14;;;;;;;56.72;38.85;;;3.30;61.70;;;;;;5096940;28;20028;-74
2024/01/08 08:19:44;;;;;;;51.63;36.33;;;3.30;61.60;;;;;;5096421;28;20024;-75
2024/01/08 08:22:14;;;;;;;52.53;36.40;;;3.30;61.50;;;;;;5097373;27;20068;-76
2024/01/08 08:24:41;;;;;;;49.13;34.00;;;3.30;61.50;;;;;;5111656;28;20115;-75
2024/01/08 08:27:10;;;;;;;49.20;33.70;;;3.40;61.50;;;;;;5099086;28;20027;-75
2024/01/08 08:29:45;;;;;;;51.83;30.85;;;3.40;61.40;;;;;;5095843;28;20045;-76
2024/01/08 08:32:11;;;;;;;40.45;27.85;;;3.40;61.30;;;;;;5116493;27;20035;-75
2024/01/08 08:34:39;;;;;;;37.95;26.55;;;3.40;61.30;;;;;;5115247;27;20051;-78
2024/01/08 08:37:09;;;;;;;38.70;26.90;;;3.40;61.20;;;;;;5116608;27;20028;-75
2024/01/08 08:39:38;;;;;;;30.25;22.35;;;3.50;61.20;;;;;;5096494;28;20019;-76
2024/01/08 08:42:05;;;;;;;36.17;24.65;;;3.50;61.10;;;;;;5117591;27;20106;-75
2024/01/08 08:44:31;;;;;;;29.88;20.20;;;3.60;61.10;;;;;;5098259;28;20042;-74
2024/01/08 08:46:58;;;;;;;24.98;18.15;;;3.60;61.10;;;;;;5096268;28;20028;-75
2024/01/08 08:49:23;;;;;;;31.08;19.88;;;3.60;61.00;;;;;;5097966;28;20031;-75
2024/01/08 08:51:49;;;;;;;23.95;17.05;;;3.70;61.00;;;;;;5113167;28;20076;-75
2024/01/08 08:54:15;;;;;;;24.95;17.65;;;3.80;61.00;;;;;;5094901;28;20068;-73
2024/01/08 08:56:41;;;;;;;22.77;16.17;;;3.80;60.90;;;;;;5114198;27;20076;-74
2024/01/08 08:59:07;;;;;;;21.25;13.98;;;3.80;60.80;;;;;;5094610;28;20110;-74
2024/01/08 09:01:32;;;;;;;17.15;11.77;;;3.80;60.70;;;;;;5114225;27;20031;-74
2024/01/08 09:03:59;;;;;;;14.85;10.55;;;3.90;60.70;;;;;;5110606;28;20181;-75
2024/01/08 09:06:25;;;;;;;15.60;10.95;;;3.90;60.60;;;;;;5113211;27;20035;-74
2024/01/08 09:08:51;;;;;;;17.30;11.00;;;4.00;60.50;;;;;;5096719;28;20382;-73
2024/01/08 09:11:20;;;;;;;14.68;10.30;;;4.00;60.40;;;;;;5114393;27;20024;-74
2024/01/08 09:13:47;;;;;;;11.23;7.78;;;4.10;60.40;;;;;;5095504;28;20024;-75
2024/01/08 09:16:16;;;;;;;12.10;8.07;;;4.10;60.20;;;;;;5112976;28;21400;-74
2024/01/08 09:18:43;;;;;;;10.27;7.35;;;4.10;60.20;;;;;;5095248;28;20023;-73
2024/01/08 09:21:09;;;;;;;10.30;6.15;;;4.10;60.10;;;;;;5096766;28;20027;-75
2024/01/08 09:23:36;;;;;;;9.27;6.43;;;4.20;60.00;;;;;;5097957;28;20035;-73
2024/01/08 09:26:02;;;;;;;8.07;5.30;;;4.20;60.00;;;;;;5094769;27;20031;-75
2024/01/08 09:28:28;;;;;;;7.60;5.13;;;4.20;59.90;;;;;;5100176;28;20084;-74
2024/01/08 09:30:54;;;;;;;6.47;4.85;;;4.20;59.80;;;;;;5094422;28;20413;-72
2024/01/08 09:33:20;;;;;;;6.57;4.70;;;4.30;59.80;;;;;;5097132;28;20457;-74
2024/01/08 09:35:47;;;;;;;5.65;4.50;;;4.30;59.80;;;;;;5115545;28;20039;-76
2024/01/08 09:38:13;;;;;;;5.32;3.90;;;4.30;59.60;;;;;;5112946;28;20020;-74
2024/01/08 09:40:40;;;;;;;6.35;4.38;;;4.30;59.50;;;;;;5113484;28;20522;-73
2024/01/08 09:43:06;;;;;;;5.90;3.90;;;4.30;59.50;;;;;;5096649;28;20026;-73
2024/01/08 09:45:32;;;;;;;4.10;3.70;;;4.30;59.40;;;;;;5099526;28;20024;-74
2024/01/08 09:47:59;;;;;;;4.00;3.33;;;4.40;59.40;;;;;;5097339;28;20035;-73
2024/01/08 09:50:28;;;;;;;4.47;3.40;;;4.40;59.40;;;;;;5113536;27;20038;-77
2024/01/08 09:52:55;;;;;;;4.10;3.10;;;4.50;59.30;;;;;;5113914;28;20042;-75
2024/01/08 09:55:21;;;;;;;3.65;3.15;;;4.50;59.40;;;;;;5112371;28;20110;-75
2024/01/08 09:57:47;;;;;;;2.97;2.70;;;4.50;59.10;;;;;;5094254;28;20110;-75
2024/01/08 10:00:14;;;;;;;4.15;3.35;;;4.60;59.00;;;;;;5094351;28;20039;-74
2024/01/08 10:02:41;;;;;;;4.47;3.72;;;4.70;58.90;;;;;;5091993;27;20031;-76
2024/01/08 10:05:07;;;;;;;3.92;3.40;;;4.70;58.80;;;;;;5117969;28;20126;-73
2024/01/08 10:07:34;;;;;;;3.30;3.00;;;4.80;58.70;;;;;;5114851;28;20156;-75
2024/01/08 10:10:01;;;;;;;3.50;3.10;;;4.80;58.60;;;;;;5109828;28;20023;-73
2024/01/08 10:12:28;;;;;;;21.25;14.02;;;4.80;58.50;;;;;;5094485;28;20027;-76
2024/01/08 10:14:55;;;;;;;9.30;7.57;;;4.80;58.60;;;;;;5113964;28;20032;-76
2024/01/08 10:17:21;;;;;;;23.77;17.42;;;4.90;60.00;;;;;;5095824;28;20035;-74
2024/01/08 10:19:47;;;;;;;32.88;24.15;;;5.00;59.80;;;;;;5099297;28;20562;-79
2024/01/08 10:22:14;;;;;;;32.85;24.85;;;5.10;59.90;;;;;;5100747;27;20030;-77
2024/01/08 10:24:42;;;;;;;31.77;23.05;;;5.10;60.20;;;;;;5124083;27;20019;-78
2024/01/08 10:27:08;;;;;;;27.88;20.30;;;5.10;60.30;;;;;;5097664;27;20365;-76
2024/01/08 10:29:38;;;;;;;27.40;19.83;;;5.10;60.30;;;;;;5138296;27;20019;-81
2024/01/08 10:32:05;;;;;;;23.80;18.55;;;5.10;60.40;;;;;;5121014;27;20030;-76
2024/01/08 10:34:36;;;;;;;21.88;15.90;;;5.10;60.40;;;;;;5112239;28;20066;-76
2024/01/08 10:37:02;;;;;;;22.05;15.27;;;5.10;60.60;;;;;;5109018;28;20084;-78
2024/01/08 10:39:38;;;;;;;17.92;13.45;;;5.20;60.40;;;;;;5117077;28;20496;-80
2024/01/08 10:42:03;;;;;;;16.35;12.48;;;5.10;60.30;;;;;;5117188;28;20372;-76
2024/01/08 10:44:29;;;;;;;13.77;10.13;;;5.10;60.20;;;;;;5133844;27;20115;-77
2024/01/08 10:47:03;;;;;;;14.43;10.52;;;5.10;60.20;;;;;;5123426;27;20027;-75
2024/01/08 10:49:35;;;;;;;10.97;8.43;;;5.10;60.10;;;;;;5123589;27;20034;-74
2024/01/08 10:52:20;;;;;;;10.88;7.57;;;5.10;60.00;;;;;;5124882;27;20377;-73
2024/01/08 10:54:57;;;;;;;9.15;6.63;;;5.10;60.00;;;;;;5116018;28;20477;-72
2024/01/08 10:57:47;;;;;;;9.88;7.07;;;5.10;60.00;;;;;;5101540;27;20020;-69
2024/01/08 11:00:13;;;;;;;9.02;6.30;;;5.10;59.90;;;;;;5098404;27;20034;-73
2024/01/08 11:02:40;;;;;;;8.02;6.05;;;5.00;59.90;;;;;;5111370;27;20054;-72
2024/01/08 11:05:10;;;;;;;6.28;5.13;;;5.00;59.80;;;;;;5115355;28;20374;-70
2024/01/08 11:07:38;;;;;;;5.85;4.45;;;5.00;59.80;;;;;;5113895;27;20030;-72
2024/01/08 11:10:06;;;;;;;6.15;4.13;;;5.00;59.70;;;;;;5098397;28;20386;-72
2024/01/08 11:12:36;;;;;;;4.22;3.63;;;5.00;59.70;;;;;;5105123;28;20455;-71
2024/01/08 11:15:03;;;;;;;4.40;3.50;;;5.00;59.60;;;;;;5116387;28;20046;-70
2024/01/08 11:17:30;;;;;;;4.63;3.53;;;5.00;59.50;;;;;;5116516;28;20028;-71
2024/01/08 11:19:57;;;;;;;4.40;3.47;;;5.00;59.50;;;;;;5097510;28;20035;-73
2024/01/08 11:22:23;;;;;;;4.53;3.30;;;5.00;59.50;;;;;;5113863;28;20035;-75
2024/01/08 11:24:49;;;;;;;6.38;3.58;;;4.90;59.40;;;;;;5107124;28;20028;-73
2024/01/08 11:27:16;;;;;;;4.65;3.40;;;5.00;59.40;;;;;;5116222;28;20129;-72
2024/01/08 11:29:44;;;;;;;3.88;3.10;;;4.90;59.40;;;;;;5115586;28;20024;-72
2024/01/08 11:32:39;;;;;;;3.03;2.70;;;5.00;59.30;;;;;;5098288;27;20031;-73
2024/01/08 11:35:10;;;;;;;3.35;2.97;;;4.90;59.20;;;;;;5115339;28;20118;-74
2024/01/08 11:37:42;;;;;;;3.40;3.10;;;4.90;59.20;;;;;;5121282;27;20533;-74
2024/01/08 11:40:11;;;;;;;3.63;3.17;;;4.90;59.70;;;;;;5107436;28;20028;-74
2024/01/08 11:42:37;;;;;;;3.83;3.00;;;4.90;59.00;;;;;;5116918;27;20108;-74
2024/01/08 11:45:03;;;;;;;3.45;3.05;;;4.90;59.00;;;;;;5114919;28;20446;-75
2024/01/08 11:47:33;;;;;;;3.38;2.80;;;4.90;59.00;;;;;;5115841;27;20384;-74
2024/01/08 11:49:59;;;;;;;4.25;3.20;;;4.90;59.00;;;;;;5118805;27;20465;-77
2024/01/08 11:52:29;;;;;;;3.28;2.92;;;4.90;59.00;;;;;;5101915;27;20051;-74
2024/01/08 11:54:55;;;;;;;2.95;2.60;;;4.90;58.90;;;;;;5136673;27;20443;-74
2024/01/08 11:57:22;;;;;;;3.03;2.60;;;4.80;58.90;;;;;;5131469;27;20031;-74
2024/01/08 11:59:48;;;;;;;3.95;3.05;;;4.80;58.80;;;;;;5111918;28;20465;-76
2024/01/08 12:02:19;;;;;;;3.15;2.80;;;4.80;58.80;;;;;;5116820;27;20447;-75
2024/01/08 12:04:58;;;;;;;2.85;2.63;;;4.80;58.80;;;;;;5119090;27;20048;-73
2024/01/08 12:07:28;;;;;;;2.80;2.60;;;4.80;58.80;;;;;;5114866;28;20385;-78
2024/01/08 12:10:00;;;;;;;4.03;3.00;;;4.80;58.80;;;;;;5114620;28;20029;-75
2024/01/08 12:12:25;;;;;;;2.95;2.72;;;4.80;58.80;;;;;;5114212;28;20034;-75
2024/01/08 12:14:52;;;;;;;3.92;3.13;;;4.70;58.70;;;;;;5115448;28;20036;-74
2024/01/08 12:17:18;;;;;;;3.33;2.92;;;4.70;58.70;;;;;;5115600;28;20036;-74
2024/01/08 12:19:50;;;;;;;3.08;2.78;;;4.70;58.70;;;;;;5115438;28;20032;-76
2024/01/08 12:22:19;;;;;;;3.20;2.90;;;4.70;58.70;;;;;;5116500;27;20031;-74
2024/01/08 12:24:47;;;;;;;5.13;2.80;;;4.60;58.60;;;;;;5115137;28;20038;-74
2024/01/08 12:27:16;;;;;;;3.38;2.97;;;4.60;58.60;;;;;;5115324;27;20085;-75
2024/01/08 12:29:43;;;;;;;3.22;2.92;;;4.60;58.60;;;;;;5113320;28;20024;-74
2024/01/08 12:32:10;;;;;;;3.33;3.03;;;4.60;58.60;;;;;;5114227;27;20024;-74
2024/01/08 12:34:37;;;;;;;3.15;2.85;;;4.60;58.50;;;;;;5116074;27;20385;-75
2024/01/08 12:37:04;;;;;;;3.40;2.90;;;4.60;58.50;;;;;;5121953;27;20035;-76
2024/01/08 12:39:33;;;;;;;3.30;3.00;;;4.50;58.40;;;;;;5117218;27;20027;-74
2024/01/08 12:42:05;;;;;;;3.88;3.20;;;4.50;58.40;;;;;;5125281;27;20024;-75
2024/01/08 12:44:35;;;;;;;3.30;3.00;;;4.50;58.50;;;;;;5119333;27;20494;-75
2024/01/08 12:47:03;;;;;;;3.50;3.20;;;4.50;58.50;;;;;;5115096;28;20034;-74